createdAt,value
2018-12-26T00:16:40.402Z,49.00
2018-12-26T00:43:47.245Z,50.10
2018-12-26T01:10:11.700Z,49.90
2018-12-26T01:23:18.860Z,49.90
2018-12-26T01:50:24.914Z,50.20
2018-12-26T02:03:47.743Z,50.40
2018-12-26T02:17:10.488Z,50.40
2018-12-26T02:43:34.969Z,50.50
2018-12-26T02:56:47.458Z,50.60
2018-12-26T03:09:49.297Z,50.70
2018-12-26T03:22:56.428Z,50.90
2018-12-26T03:36:03.584Z,51.00
2018-12-26T03:49:10.789Z,51.00
2018-12-26T04:02:34.705Z,51.10
2018-12-26T04:28:59.273Z,51.20
2018-12-26T04:42:06.428Z,51.30
2018-12-26T04:55:13.574Z,51.30
2018-12-26T05:08:20.698Z,51.40
2018-12-26T05:21:27.805Z,51.40
2018-12-26T05:34:34.943Z,51.50
2018-12-26T05:47:58.934Z,51.50
2018-12-26T06:01:21.758Z,51.60
2018-12-26T06:14:44.573Z,51.60
2018-12-26T06:28:07.439Z,51.70
2018-12-26T06:41:30.218Z,52.20
2018-12-26T06:54:53.039Z,51.60
2018-12-26T07:08:15.877Z,51.50
2018-12-26T07:21:38.686Z,51.30
2018-12-26T07:48:03.147Z,51.60
2018-12-26T08:01:10.346Z,51.70
2018-12-26T08:14:17.489Z,51.80
2018-12-26T08:27:24.600Z,49.30
2018-12-26T08:40:31.738Z,48.10
2018-12-26T08:53:38.837Z,48.50
2018-12-26T09:07:02.868Z,48.80
2018-12-26T09:20:25.721Z,49.20
2018-12-26T09:33:48.525Z,49.40
2018-12-26T09:47:11.348Z,49.70
2018-12-26T10:00:34.131Z,49.90
2018-12-26T10:13:56.957Z,50.20
2018-12-26T10:27:19.775Z,50.40
2018-12-26T10:40:42.591Z,50.40
2018-12-26T10:54:05.425Z,50.50
2018-12-26T11:20:29.872Z,50.40
2018-12-26T11:33:36.990Z,50.60
2018-12-26T11:46:44.120Z,50.50
2018-12-26T12:12:55.606Z,50.50
2018-12-26T12:26:02.705Z,50.50
2018-12-26T12:39:09.809Z,50.40
2018-12-26T12:52:17.056Z,50.40
2018-12-26T13:05:24.184Z,50.40
2018-12-26T13:18:31.352Z,50.50
2018-12-26T13:31:55.389Z,50.40
2018-12-26T13:45:18.196Z,50.40
2018-12-26T13:58:40.977Z,50.40
2018-12-26T14:12:03.815Z,50.40
2018-12-26T14:25:26.631Z,50.40
2018-12-26T14:38:49.426Z,50.30
2018-12-26T15:05:13.952Z,50.30
2018-12-26T15:18:21.118Z,50.20
2018-12-26T15:31:28.256Z,50.20
2018-12-26T16:10:46.112Z,50.10
2018-12-26T16:23:53.264Z,50.10
2018-12-26T16:37:00.404Z,50.10
2018-12-26T17:03:11.827Z,50.00
2018-12-26T17:16:18.977Z,50.00
2018-12-26T17:29:26.137Z,50.00
2018-12-26T17:42:33.247Z,49.90
2018-12-26T18:08:44.181Z,49.90
2018-12-26T18:21:51.525Z,49.90
2018-12-26T18:34:58.869Z,49.90
2018-12-26T18:48:06.061Z,49.80
2018-12-26T19:01:13.271Z,49.80
2018-12-26T19:14:37.267Z,49.80
2018-12-26T19:28:00.137Z,49.80
2018-12-26T19:41:22.906Z,49.70
2018-12-26T20:07:48.290Z,49.70
2018-12-26T20:20:55.478Z,49.30
2018-12-26T20:34:02.631Z,49.10
2018-12-26T20:47:09.810Z,49.30
2018-12-26T21:00:17.078Z,49.30
2018-12-26T21:13:40.810Z,49.40
2018-12-26T21:27:03.647Z,49.50
2018-12-26T21:40:26.365Z,49.50
2018-12-26T21:53:49.154Z,49.40
2018-12-26T22:07:12.016Z,49.40
2018-12-26T22:20:34.817Z,49.40
2018-12-26T22:33:57.656Z,49.40
2018-12-26T22:47:20.533Z,49.60
2018-12-26T23:00:43.500Z,49.60
2018-12-26T23:14:06.051Z,49.70
2018-12-26T23:27:28.925Z,49.70
2018-12-26T23:40:51.716Z,49.80
2018-12-26T23:54:14.635Z,49.80
